sensor_id;sensor_type;location;lat;lon;timestamp;pressure;altitude;pressure_sealevel;temperature;humidity
22181;BME280;11256;50.830;12.834;2023-08-06T00:01:23;96789.47;;;18.83;61.01
22181;BME280;11256;50.830;12.834;2023-08-06T00:06:25;96786.97;;;18.78;60.72
22181;BME280;11256;50.830;12.834;2023-08-06T00:11:25;96776.25;;;18.73;60.91
22181;BME280;11256;50.830;12.834;2023-08-06T00:16:26;96772.66;;;18.69;60.67
22181;BME280;11256;50.830;12.834;2023-08-06T00:21:26;96783.97;;;18.67;60.95
22181;BME280;11256;50.830;12.834;2023-08-06T00:26:27;96792.47;;;18.62;61.02
22181;BME280;11256;50.830;12.834;2023-08-06T00:31:27;96793.56;;;18.58;60.96
22181;BME280;11256;50.830;12.834;2023-08-06T00:36:28;96775.28;;;18.50;61.12
22181;BME280;11256;50.830;12.834;2023-08-06T00:41:28;96787.84;;;18.51;61.40
22181;BME280;11256;50.830;12.834;2023-08-06T00:46:28;96768.75;;;18.39;61.34
22181;BME280;11256;50.830;12.834;2023-08-06T00:51:30;96774.31;;;18.42;61.13
22181;BME280;11256;50.830;12.834;2023-08-06T00:56:32;96770.31;;;18.40;61.46
22181;BME280;11256;50.830;12.834;2023-08-06T01:01:33;96760.75;;;18.34;61.25
22181;BME280;11256;50.830;12.834;2023-08-06T01:06:44;96758.16;;;18.25;61.29
22181;BME280;11256;50.830;12.834;2023-08-06T01:12:01;96772.44;;;18.31;61.87
22181;BME280;11256;50.830;12.834;2023-08-06T01:17:06;96767.84;;;18.35;62.19
22181;BME280;11256;50.830;12.834;2023-08-06T01:22:07;96762.34;;;18.35;61.96
22181;BME280;11256;50.830;12.834;2023-08-06T01:27:12;96759.84;;;18.30;62.00
22181;BME280;11256;50.830;12.834;2023-08-06T01:32:15;96753.56;;;18.29;61.87
22181;BME280;11256;50.830;12.834;2023-08-06T01:37:17;96757.59;;;18.32;62.18
22181;BME280;11256;50.830;12.834;2023-08-06T01:42:17;96749.59;;;18.27;62.28
22181;BME280;11256;50.830;12.834;2023-08-06T01:47:17;96747.53;;;18.24;61.74
22181;BME280;11256;50.830;12.834;2023-08-06T01:52:18;96732.94;;;18.20;61.93
22181;BME280;11256;50.830;12.834;2023-08-06T01:57:18;96726.13;;;18.14;61.70
22181;BME280;11256;50.830;12.834;2023-08-06T02:02:19;96719.28;;;18.08;61.44
22181;BME280;11256;50.830;12.834;2023-08-06T02:07:21;96709.72;;;18.02;61.72
22181;BME280;11256;50.830;12.834;2023-08-06T02:12:21;96717.44;;;17.96;64.15
22181;BME280;11256;50.830;12.834;2023-08-06T02:17:22;96707.88;;;17.90;62.49
22181;BME280;11256;50.830;12.834;2023-08-06T02:22:22;96699.91;;;17.85;62.37
22181;BME280;11256;50.830;12.834;2023-08-06T02:27:23;96694.31;;;17.82;62.36
22181;BME280;11256;50.830;12.834;2023-08-06T02:32:23;96676.97;;;17.78;62.31
22181;BME280;11256;50.830;12.834;2023-08-06T02:37:24;96685.47;;;17.73;62.49
22181;BME280;11256;50.830;12.834;2023-08-06T02:42:24;96679.88;;;17.69;62.50
22181;BME280;11256;50.830;12.834;2023-08-06T02:47:26;96670.31;;;17.63;62.77
22181;BME280;11256;50.830;12.834;2023-08-06T02:52:27;96671.09;;;17.64;62.77
22181;BME280;11256;50.830;12.834;2023-08-06T02:57:27;96666.88;;;17.66;62.76
22181;BME280;11256;50.830;12.834;2023-08-06T03:02:29;96673.59;;;17.69;63.17
22181;BME280;11256;50.830;12.834;2023-08-06T03:07:55;96667.44;;;17.72;63.32
22181;BME280;11256;50.830;12.834;2023-08-06T03:13:00;96661.94;;;17.72;63.41
22181;BME280;11256;50.830;12.834;2023-08-06T03:18:00;96650.53;;;17.70;63.56
22181;BME280;11256;50.830;12.834;2023-08-06T03:23:00;96653.25;;;17.70;63.39
22181;BME280;11256;50.830;12.834;2023-08-06T03:28:03;96648.59;;;17.70;63.75
22181;BME280;11256;50.830;12.834;2023-08-06T03:33:04;96659.81;;;17.81;63.54
22181;BME280;11256;50.830;12.834;2023-08-06T03:38:04;96657.19;;;17.84;63.78
22181;BME280;11256;50.830;12.834;2023-08-06T03:43:05;96649.75;;;17.85;64.02
22181;BME280;11256;50.830;12.834;2023-08-06T03:48:06;96636.50;;;17.87;64.46
22181;BME280;11256;50.830;12.834;2023-08-06T03:53:06;96650.03;;;17.95;64.76
22181;BME280;11256;50.830;12.834;2023-08-06T03:58:07;96638.25;;;17.95;64.85
22181;BME280;11256;50.830;12.834;2023-08-06T04:03:07;96632.78;;;17.95;64.85
22181;BME280;11256;50.830;12.834;2023-08-06T04:08:08;96631.19;;;17.94;64.66
22181;BME280;11256;50.830;12.834;2023-08-06T04:13:08;96626.50;;;17.94;64.83
22181;BME280;11256;50.830;12.834;2023-08-06T04:18:08;96627.66;;;17.93;65.02
22181;BME280;11256;50.830;12.834;2023-08-06T04:23:09;96628.03;;;17.92;65.16
22181;BME280;11256;50.830;12.834;2023-08-06T04:28:10;96631.88;;;17.91;64.92
22181;BME280;11256;50.830;12.834;2023-08-06T04:33:10;96626.78;;;17.89;65.09
22181;BME280;11256;50.830;12.834;2023-08-06T04:38:12;96626.31;;;17.87;64.99
22181;BME280;11256;50.830;12.834;2023-08-06T04:43:12;96617.75;;;17.89;65.28
22181;BME280;11256;50.830;12.834;2023-08-06T04:48:13;96611.38;;;17.85;65.58
22181;BME280;11256;50.830;12.834;2023-08-06T04:53:14;96618.44;;;17.86;65.52
22181;BME280;11256;50.830;12.834;2023-08-06T04:58:14;96603.31;;;17.76;65.18
22181;BME280;11256;50.830;12.834;2023-08-06T05:03:14;96608.91;;;17.80;65.21
22181;BME280;11256;50.830;12.834;2023-08-06T05:08:15;96592.97;;;17.70;65.21
22181;BME280;11256;50.830;12.834;2023-08-06T05:13:19;96608.72;;;17.73;65.19
22181;BME280;11256;50.830;12.834;2023-08-06T05:18:19;96592.53;;;17.68;65.31
22181;BME280;11256;50.830;12.834;2023-08-06T05:23:20;96600.50;;;17.73;65.29
22181;BME280;11256;50.830;12.834;2023-08-06T05:28:20;96591.38;;;17.69;65.31
22181;BME280;11256;50.830;12.834;2023-08-06T05:33:20;96580.25;;;17.62;65.48
22181;BME280;11256;50.830;12.834;2023-08-06T05:38:21;96593.34;;;17.68;65.58
22181;BME280;11256;50.830;12.834;2023-08-06T05:43:22;96585.03;;;17.65;65.66
22181;BME280;11256;50.830;12.834;2023-08-06T05:48:22;96592.09;;;17.66;66.05
22181;BME280;11256;50.830;12.834;2023-08-06T05:53:25;96592.09;;;17.66;65.82
22181;BME280;11256;50.830;12.834;2023-08-06T05:58:25;96596.09;;;17.68;65.92
22181;BME280;11256;50.830;12.834;2023-08-06T06:03:28;96582.47;;;17.72;66.42
22181;BME280;11256;50.830;12.834;2023-08-06T06:08:29;96586.78;;;17.73;66.52
22181;BME280;11256;50.830;12.834;2023-08-06T06:13:29;96577.34;;;17.70;66.26
22181;BME280;11256;50.830;12.834;2023-08-06T06:18:29;96589.19;;;17.74;66.57
22181;BME280;11256;50.830;12.834;2023-08-06T06:23:30;96568.31;;;17.70;67.19
22181;BME280;11256;50.830;12.834;2023-08-06T06:28:30;96569.19;;;17.74;67.92
22181;BME280;11256;50.830;12.834;2023-08-06T06:33:30;96554.00;;;17.76;67.17
22181;BME280;11256;50.830;12.834;2023-08-06T06:38:31;96564.25;;;17.79;67.57
22181;BME280;11256;50.830;12.834;2023-08-06T06:43:32;96558.78;;;17.79;67.49
22181;BME280;11256;50.830;12.834;2023-08-06T06:48:33;96566.47;;;17.89;67.62
22181;BME280;11256;50.830;12.834;2023-08-06T06:53:33;96567.72;;;17.92;67.80
22181;BME280;11256;50.830;12.834;2023-08-06T06:58:34;96569.28;;;17.93;68.11
22181;BME280;11256;50.830;12.834;2023-08-06T07:03:34;96560.34;;;17.96;68.03
22181;BME280;11256;50.830;12.834;2023-08-06T07:08:34;96560.63;;;17.91;68.07
22181;BME280;11256;50.830;12.834;2023-08-06T07:13:35;96553.72;;;17.97;68.22
22181;BME280;11256;50.830;12.834;2023-08-06T07:18:35;96554.59;;;18.01;68.62
22181;BME280;11256;50.830;12.834;2023-08-06T07:23:35;96560.53;;;18.03;68.72
22181;BME280;11256;50.830;12.834;2023-08-06T07:28:36;96562.47;;;18.02;68.73
22181;BME280;11256;50.830;12.834;2023-08-06T07:33:36;96568.94;;;18.10;69.10
22181;BME280;11256;50.830;12.834;2023-08-06T07:38:37;96568.13;;;18.09;69.57
22181;BME280;11256;50.830;12.834;2023-08-06T07:43:37;96564.47;;;18.21;69.85
22181;BME280;11256;50.830;12.834;2023-08-06T07:48:38;96554.28;;;18.21;69.80
22181;BME280;11256;50.830;12.834;2023-08-06T07:53:38;96555.63;;;18.27;69.98
22181;BME280;11256;50.830;12.834;2023-08-06T07:58:38;96557.91;;;18.25;69.51
22181;BME280;11256;50.830;12.834;2023-08-06T08:03:39;96557.66;;;18.30;69.78
22181;BME280;11256;50.830;12.834;2023-08-06T08:08:39;96543.44;;;18.25;69.62
22181;BME280;11256;50.830;12.834;2023-08-06T08:13:39;96542.63;;;18.24;69.22
22181;BME280;11256;50.830;12.834;2023-08-06T08:18:40;96545.44;;;18.28;69.37
22181;BME280;11256;50.830;12.834;2023-08-06T08:23:40;96533.06;;;18.34;69.45
22181;BME280;11256;50.830;12.834;2023-08-06T08:28:42;96539.09;;;18.39;69.75
22181;BME280;11256;50.830;12.834;2023-08-06T08:33:42;96536.91;;;18.48;69.70
22181;BME280;11256;50.830;12.834;2023-08-06T08:38:43;96538.03;;;18.63;70.56
22181;BME280;11256;50.830;12.834;2023-08-06T08:43:43;96519.25;;;18.65;70.64
22181;BME280;11256;50.830;12.834;2023-08-06T08:48:44;96524.94;;;18.75;70.60
22181;BME280;11256;50.830;12.834;2023-08-06T08:53:47;96508.53;;;18.79;70.28
22181;BME280;11256;50.830;12.834;2023-08-06T08:58:47;96519.69;;;18.86;70.30
22181;BME280;11256;50.830;12.834;2023-08-06T09:03:51;96518.81;;;19.01;70.72
22181;BME280;11256;50.830;12.834;2023-08-06T09:09:01;96503.75;;;19.14;70.74
22181;BME280;11256;50.830;12.834;2023-08-06T09:14:07;96516.13;;;19.23;70.06
22181;BME280;11256;50.830;12.834;2023-08-06T09:19:12;96524.81;;;19.48;71.67
22181;BME280;11256;50.830;12.834;2023-08-06T09:24:12;96518.09;;;19.68;71.57
22181;BME280;11256;50.830;12.834;2023-08-06T09:29:13;96512.41;;;19.80;71.01
22181;BME280;11256;50.830;12.834;2023-08-06T09:34:16;96517.00;;;19.95;70.62
22181;BME280;11256;50.830;12.834;2023-08-06T09:39:18;96505.50;;;20.12;69.71
22181;BME280;11256;50.830;12.834;2023-08-06T09:44:20;96512.84;;;20.30;70.09
22181;BME280;11256;50.830;12.834;2023-08-06T09:54:36;96495.81;;;20.51;68.49
22181;BME280;11256;50.830;12.834;2023-08-06T09:59:38;96481.00;;;20.59;68.12
22181;BME280;11256;50.830;12.834;2023-08-06T10:04:39;96482.34;;;20.72;67.71
22181;BME280;11256;50.830;12.834;2023-08-06T10:09:39;96480.47;;;20.79;67.28
22181;BME280;11256;50.830;12.834;2023-08-06T10:14:41;96466.47;;;20.91;67.96
22181;BME280;11256;50.830;12.834;2023-08-06T10:19:43;96475.28;;;21.07;67.98
22181;BME280;11256;50.830;12.834;2023-08-06T10:24:51;96469.19;;;21.24;66.98
22181;BME280;11256;50.830;12.834;2023-08-06T10:29:52;96461.00;;;21.35;66.02
22181;BME280;11256;50.830;12.834;2023-08-06T10:34:59;96448.16;;;21.49;66.22
22181;BME280;11256;50.830;12.834;2023-08-06T10:40:00;96464.84;;;21.67;66.27
22181;BME280;11256;50.830;12.834;2023-08-06T10:45:19;96458.69;;;21.84;65.16
22181;BME280;11256;50.830;12.834;2023-08-06T10:50:20;96438.28;;;21.92;64.83
22181;BME280;11256;50.830;12.834;2023-08-06T10:55:27;96439.94;;;22.03;64.20
22181;BME280;11256;50.830;12.834;2023-08-06T11:00:28;96441.56;;;22.15;63.81
22181;BME280;11256;50.830;12.834;2023-08-06T11:05:29;96434.88;;;22.19;63.32
22181;BME280;11256;50.830;12.834;2023-08-06T11:10:29;96422.34;;;22.29;63.35
22181;BME280;11256;50.830;12.834;2023-08-06T11:15:30;96410.13;;;22.37;63.65
22181;BME280;11256;50.830;12.834;2023-08-06T11:20:31;96405.88;;;22.46;63.37
22181;BME280;11256;50.830;12.834;2023-08-06T11:25:36;96401.16;;;22.54;63.19
22181;BME280;11256;50.830;12.834;2023-08-06T11:30:38;96391.75;;;22.72;62.14
22181;BME280;11256;50.830;12.834;2023-08-06T11:35:38;96388.66;;;22.88;62.19
22181;BME280;11256;50.830;12.834;2023-08-06T11:40:40;96389.88;;;23.01;62.26
22181;BME280;11256;50.830;12.834;2023-08-06T11:45:40;96398.59;;;23.17;61.88
22181;BME280;11256;50.830;12.834;2023-08-06T11:50:44;96394.31;;;23.37;60.70
22181;BME280;11256;50.830;12.834;2023-08-06T11:55:44;96393.91;;;23.49;59.47
22181;BME280;11256;50.830;12.834;2023-08-06T12:00:44;96384.41;;;23.57;60.33
22181;BME280;11256;50.830;12.834;2023-08-06T12:05:45;96380.47;;;23.65;59.99
22181;BME280;11256;50.830;12.834;2023-08-06T12:10:47;96376.88;;;23.68;59.74
22181;BME280;11256;50.830;12.834;2023-08-06T12:15:47;96369.38;;;23.72;59.25
22181;BME280;11256;50.830;12.834;2023-08-06T12:20:47;96368.56;;;23.82;59.11
22181;BME280;11256;50.830;12.834;2023-08-06T12:25:48;96374.91;;;23.86;59.35
22181;BME280;11256;50.830;12.834;2023-08-06T12:30:49;96370.13;;;24.04;58.76
22181;BME280;11256;50.830;12.834;2023-08-06T12:35:50;96358.63;;;24.16;57.29
22181;BME280;11256;50.830;12.834;2023-08-06T12:40:53;96355.91;;;24.09;57.91
22181;BME280;11256;50.830;12.834;2023-08-06T12:45:53;96361.03;;;24.14;57.80
22181;BME280;11256;50.830;12.834;2023-08-06T12:50:54;96355.03;;;24.26;57.15
22181;BME280;11256;50.830;12.834;2023-08-06T12:55:54;96345.50;;;24.34;57.84
22181;BME280;11256;50.830;12.834;2023-08-06T13:00:54;96351.00;;;24.48;57.70
22181;BME280;11256;50.830;12.834;2023-08-06T13:05:55;96342.25;;;24.60;57.36
22181;BME280;11256;50.830;12.834;2023-08-06T13:10:55;96341.78;;;24.79;57.01
22181;BME280;11256;50.830;12.834;2023-08-06T13:15:56;96341.28;;;24.91;55.84
22181;BME280;11256;50.830;12.834;2023-08-06T13:20:56;96342.66;;;25.20;56.18
22181;BME280;11256;50.830;12.834;2023-08-06T13:25:57;96347.00;;;25.21;56.30
22181;BME280;11256;50.830;12.834;2023-08-06T13:30:58;96341.06;;;25.22;55.61
22181;BME280;11256;50.830;12.834;2023-08-06T13:35:58;96327.59;;;25.21;56.40
22181;BME280;11256;50.830;12.834;2023-08-06T13:40:59;96331.53;;;25.23;56.29
22181;BME280;11256;50.830;12.834;2023-08-06T13:45:59;96329.56;;;25.24;56.88
22181;BME280;11256;50.830;12.834;2023-08-06T13:51:00;96322.84;;;25.25;56.26
22181;BME280;11256;50.830;12.834;2023-08-06T13:56:00;96341.41;;;25.35;56.00
22181;BME280;11256;50.830;12.834;2023-08-06T14:01:00;96359.47;;;25.53;54.55
22181;BME280;11256;50.830;12.834;2023-08-06T14:06:01;96351.50;;;25.55;54.54
22181;BME280;11256;50.830;12.834;2023-08-06T14:11:01;96337.78;;;25.38;53.81
22181;BME280;11256;50.830;12.834;2023-08-06T14:16:02;96347.41;;;25.23;53.57
22181;BME280;11256;50.830;12.834;2023-08-06T14:21:02;96328.94;;;24.99;53.33
22181;BME280;11256;50.830;12.834;2023-08-06T14:26:02;96340.94;;;24.82;53.77
22181;BME280;11256;50.830;12.834;2023-08-06T14:31:03;96336.66;;;24.67;54.57
22181;BME280;11256;50.830;12.834;2023-08-06T14:36:03;96327.22;;;24.54;54.59
22181;BME280;11256;50.830;12.834;2023-08-06T14:41:04;96334.38;;;24.44;54.96
22181;BME280;11256;50.830;12.834;2023-08-06T14:46:04;96329.28;;;24.29;55.26
22181;BME280;11256;50.830;12.834;2023-08-06T14:51:05;96340.00;;;24.27;55.68
22181;BME280;11256;50.830;12.834;2023-08-06T14:56:05;96340.81;;;24.24;56.29
22181;BME280;11256;50.830;12.834;2023-08-06T15:01:07;96334.84;;;24.25;56.67
22181;BME280;11256;50.830;12.834;2023-08-06T15:06:08;96332.50;;;24.24;56.55
22181;BME280;11256;50.830;12.834;2023-08-06T15:11:08;96322.59;;;24.30;57.43
22181;BME280;11256;50.830;12.834;2023-08-06T15:16:09;96325.69;;;24.39;58.13
22181;BME280;11256;50.830;12.834;2023-08-06T15:21:10;96325.22;;;24.51;58.08
22181;BME280;11256;50.830;12.834;2023-08-06T15:26:10;96337.50;;;24.64;57.50
22181;BME280;11256;50.830;12.834;2023-08-06T15:31:10;96331.47;;;24.76;56.89
22181;BME280;11256;50.830;12.834;2023-08-06T15:36:11;96350.75;;;24.97;56.09
22181;BME280;11256;50.830;12.834;2023-08-06T15:41:11;96348.31;;;25.09;55.18
22181;BME280;11256;50.830;12.834;2023-08-06T15:46:11;96352.16;;;25.22;52.83
22181;BME280;11256;50.830;12.834;2023-08-06T15:51:12;96356.91;;;25.29;53.26
22181;BME280;11256;50.830;12.834;2023-08-06T15:56:12;96355.34;;;25.28;52.02
22181;BME280;11256;50.830;12.834;2023-08-06T16:01:13;96354.13;;;25.29;51.71
22181;BME280;11256;50.830;12.834;2023-08-06T16:06:14;96353.00;;;25.19;51.83
22181;BME280;11256;50.830;12.834;2023-08-06T16:11:15;96353.81;;;25.13;51.95
22181;BME280;11256;50.830;12.834;2023-08-06T16:16:36;96361.00;;;25.07;51.99
22181;BME280;11256;50.830;12.834;2023-08-06T16:21:36;96361.41;;;25.02;52.00
22181;BME280;11256;50.830;12.834;2023-08-06T16:26:37;96360.28;;;24.92;51.39
22181;BME280;11256;50.830;12.834;2023-08-06T16:31:37;96355.94;;;24.88;50.67
22181;BME280;11256;50.830;12.834;2023-08-06T16:36:37;96357.22;;;24.76;51.00
22181;BME280;11256;50.830;12.834;2023-08-06T16:41:38;96346.94;;;24.70;51.09
22181;BME280;11256;50.830;12.834;2023-08-06T16:46:39;96352.91;;;24.65;51.32
22181;BME280;11256;50.830;12.834;2023-08-06T16:51:39;96352.56;;;24.59;50.84
22181;BME280;11256;50.830;12.834;2023-08-06T16:56:39;96346.22;;;24.52;51.09
22181;BME280;11256;50.830;12.834;2023-08-06T17:01:40;96337.97;;;24.38;51.24
22181;BME280;11256;50.830;12.834;2023-08-06T17:06:40;96343.13;;;24.36;51.41
22181;BME280;11256;50.830;12.834;2023-08-06T17:11:41;96342.38;;;24.25;51.77
22181;BME280;11256;50.830;12.834;2023-08-06T17:16:41;96330.56;;;24.07;50.89
22181;BME280;11256;50.830;12.834;2023-08-06T17:21:42;96359.09;;;24.00;51.48
22181;BME280;11256;50.830;12.834;2023-08-06T17:26:42;96344.84;;;23.88;51.72
22181;BME280;11256;50.830;12.834;2023-08-06T17:31:43;96344.06;;;23.77;51.79
22181;BME280;11256;50.830;12.834;2023-08-06T17:36:43;96345.69;;;23.64;52.01
22181;BME280;11256;50.830;12.834;2023-08-06T17:41:43;96342.53;;;23.55;51.98
22181;BME280;11256;50.830;12.834;2023-08-06T17:46:44;96359.91;;;23.45;52.29
22181;BME280;11256;50.830;12.834;2023-08-06T17:51:44;96355.16;;;23.28;52.54
22181;BME280;11256;50.830;12.834;2023-08-06T17:56:45;96369.34;;;23.09;52.80
22181;BME280;11256;50.830;12.834;2023-08-06T18:01:45;96376.44;;;22.96;52.68
22181;BME280;11256;50.830;12.834;2023-08-06T18:06:46;96379.97;;;22.86;52.99
22181;BME280;11256;50.830;12.834;2023-08-06T18:11:46;96380.31;;;22.74;53.14
22181;BME280;11256;50.830;12.834;2023-08-06T18:16:46;96398.84;;;22.66;53.34
22181;BME280;11256;50.830;12.834;2023-08-06T18:21:47;96396.81;;;22.49;53.74
22181;BME280;11256;50.830;12.834;2023-08-06T18:26:47;96396.75;;;22.39;53.73
22181;BME280;11256;50.830;12.834;2023-08-06T18:31:47;96398.69;;;22.28;54.11
22181;BME280;11256;50.830;12.834;2023-08-06T18:36:48;96408.47;;;22.22;54.02
22181;BME280;11256;50.830;12.834;2023-08-06T18:41:48;96415.16;;;22.14;54.32
22181;BME280;11256;50.830;12.834;2023-08-06T18:46:48;96415.88;;;22.04;54.48
22181;BME280;11256;50.830;12.834;2023-08-06T18:51:49;96418.59;;;21.93;54.87
22181;BME280;11256;50.830;12.834;2023-08-06T18:56:49;96424.84;;;21.87;55.06
22181;BME280;11256;50.830;12.834;2023-08-06T19:01:49;96423.97;;;21.76;54.95
22181;BME280;11256;50.830;12.834;2023-08-06T19:06:50;96436.13;;;21.68;55.27
22181;BME280;11256;50.830;12.834;2023-08-06T19:11:50;96448.25;;;21.60;55.50
22181;BME280;11256;50.830;12.834;2023-08-06T19:16:50;96454.03;;;21.48;55.48
22181;BME280;11256;50.830;12.834;2023-08-06T19:21:51;96459.06;;;21.39;56.30
22181;BME280;11256;50.830;12.834;2023-08-06T19:26:52;96465.28;;;21.29;56.60
22181;BME280;11256;50.830;12.834;2023-08-06T19:31:52;96460.47;;;21.19;57.24
22181;BME280;11256;50.830;12.834;2023-08-06T19:36:53;96457.97;;;21.07;57.44
22181;BME280;11256;50.830;12.834;2023-08-06T19:41:53;96468.06;;;20.96;57.69
22181;BME280;11256;50.830;12.834;2023-08-06T19:46:54;96468.81;;;20.89;58.19
22181;BME280;11256;50.830;12.834;2023-08-06T19:51:54;96452.53;;;20.81;58.25
22181;BME280;11256;50.830;12.834;2023-08-06T19:56:55;96452.41;;;20.70;58.56
22181;BME280;11256;50.830;12.834;2023-08-06T20:01:55;96444.44;;;20.62;58.51
22181;BME280;11256;50.830;12.834;2023-08-06T20:06:56;96460.41;;;20.49;58.46
22181;BME280;11256;50.830;12.834;2023-08-06T20:11:56;96452.44;;;20.41;58.60
22181;BME280;11256;50.830;12.834;2023-08-06T20:16:57;96453.50;;;20.33;58.92
22181;BME280;11256;50.830;12.834;2023-08-06T20:21:57;96457.38;;;20.28;59.46
22181;BME280;11256;50.830;12.834;2023-08-06T20:26:58;96453.31;;;20.19;59.31
22181;BME280;11256;50.830;12.834;2023-08-06T20:32:00;96465.38;;;20.11;60.13
22181;BME280;11256;50.830;12.834;2023-08-06T20:37:01;96458.53;;;20.01;60.68
22181;BME280;11256;50.830;12.834;2023-08-06T20:42:01;96458.06;;;19.96;60.37
22181;BME280;11256;50.830;12.834;2023-08-06T20:47:01;96455.94;;;19.86;60.70
22181;BME280;11256;50.830;12.834;2023-08-06T20:52:02;96465.72;;;19.83;60.74
22181;BME280;11256;50.830;12.834;2023-08-06T20:57:02;96460.06;;;19.73;60.90
22181;BME280;11256;50.830;12.834;2023-08-06T21:02:03;96468.69;;;19.71;60.65
22181;BME280;11256;50.830;12.834;2023-08-06T21:07:04;96466.19;;;19.63;61.84
22181;BME280;11256;50.830;12.834;2023-08-06T21:12:06;96468.03;;;19.55;61.25
22181;BME280;11256;50.830;12.834;2023-08-06T21:17:07;96472.59;;;19.48;62.04
22181;BME280;11256;50.830;12.834;2023-08-06T21:22:07;96454.41;;;19.40;62.05
22181;BME280;11256;50.830;12.834;2023-08-06T21:27:08;96472.38;;;19.34;61.68
22181;BME280;11256;50.830;12.834;2023-08-06T21:32:09;96460.22;;;19.16;63.02
22181;BME280;11256;50.830;12.834;2023-08-06T21:37:09;96475.53;;;19.17;62.59
22181;BME280;11256;50.830;12.834;2023-08-06T21:42:09;96487.22;;;19.10;62.73
22181;BME280;11256;50.830;12.834;2023-08-06T21:47:10;96485.41;;;18.99;63.01
22181;BME280;11256;50.830;12.834;2023-08-06T21:52:11;96500.31;;;18.98;63.00
22181;BME280;11256;50.830;12.834;2023-08-06T21:57:11;96495.53;;;18.95;62.96
22181;BME280;11256;50.830;12.834;2023-08-06T22:02:12;96496.44;;;18.80;63.21
22181;BME280;11256;50.830;12.834;2023-08-06T22:07:12;96504.22;;;18.78;63.38
22181;BME280;11256;50.830;12.834;2023-08-06T22:12:12;96518.69;;;18.75;63.30
22181;BME280;11256;50.830;12.834;2023-08-06T22:17:13;96526.31;;;18.66;64.19
22181;BME280;11256;50.830;12.834;2023-08-06T22:22:13;96534.06;;;18.60;63.89
22181;BME280;11256;50.830;12.834;2023-08-06T22:27:13;96527.09;;;18.47;63.87
22181;BME280;11256;50.830;12.834;2023-08-06T22:32:14;96524.28;;;18.44;64.63
22181;BME280;11256;50.830;12.834;2023-08-06T22:37:14;96518.44;;;18.30;64.85
22181;BME280;11256;50.830;12.834;2023-08-06T22:42:15;96535.03;;;18.33;65.52
22181;BME280;11256;50.830;12.834;2023-08-06T22:47:17;96538.72;;;18.25;65.06
22181;BME280;11256;50.830;12.834;2023-08-06T22:52:17;96539.59;;;18.29;65.06
22181;BME280;11256;50.830;12.834;2023-08-06T22:57:18;96541.81;;;18.24;65.47
22181;BME280;11256;50.830;12.834;2023-08-06T23:02:18;96540.22;;;18.23;65.51
22181;BME280;11256;50.830;12.834;2023-08-06T23:07:18;96529.38;;;18.11;65.98
22181;BME280;11256;50.830;12.834;2023-08-06T23:12:19;96527.44;;;18.11;65.83
22181;BME280;11256;50.830;12.834;2023-08-06T23:17:19;96528.34;;;18.00;65.88
22181;BME280;11256;50.830;12.834;2023-08-06T23:22:19;96527.25;;;18.04;65.62
22181;BME280;11256;50.830;12.834;2023-08-06T23:27:20;96528.75;;;18.02;65.91
22181;BME280;11256;50.830;12.834;2023-08-06T23:32:20;96532.94;;;17.96;66.31
22181;BME280;11256;50.830;12.834;2023-08-06T23:37:21;96523.38;;;17.90;66.78
22181;BME280;11256;50.830;12.834;2023-08-06T23:42:22;96518.25;;;17.88;66.63
22181;BME280;11256;50.830;12.834;2023-08-06T23:47:22;96522.00;;;17.80;66.54
22181;BME280;11256;50.830;12.834;2023-08-06T23:52:23;96533.56;;;17.74;66.92
22181;BME280;11256;50.830;12.834;2023-08-06T23:57:23;96538.34;;;17.77;66.97
